createdAt,value
2018-02-23T00:00:52.730Z,0
2018-02-23T00:01:52.459Z,0
2018-02-23T00:02:52.460Z,0
2018-02-23T00:03:52.707Z,0
2018-02-23T00:04:52.685Z,0
2018-02-23T00:05:52.683Z,0
2018-02-23T00:06:52.425Z,0
2018-02-23T00:07:52.395Z,0
2018-02-23T00:08:52.637Z,0
2018-02-23T00:09:52.636Z,0
2018-02-23T00:10:52.869Z,0
2018-02-23T00:11:52.605Z,0
2018-02-23T00:12:52.594Z,0
2018-02-23T00:13:52.591Z,0
2018-02-23T00:14:52.313Z,0
2018-02-23T00:15:52.567Z,0
2018-02-23T00:16:52.550Z,0
2018-02-23T00:17:52.285Z,0
2018-02-23T00:18:52.299Z,0
2018-02-23T00:19:52.525Z,0
2018-02-23T00:20:52.489Z,0
2018-02-23T00:21:52.482Z,0
2018-02-23T00:22:52.217Z,0
2018-02-23T00:23:52.225Z,0
2018-02-23T00:24:52.460Z,0
2018-02-23T00:25:53.222Z,0
2018-02-23T00:26:53.110Z,0
2018-02-23T00:27:54.481Z,0
2018-02-23T00:28:52.153Z,0
2018-02-23T00:29:52.392Z,0
2018-02-23T00:30:52.397Z,0
2018-02-23T00:31:52.374Z,0
2018-02-23T00:32:52.366Z,0
2018-02-23T00:33:52.363Z,0
2018-02-23T00:34:52.350Z,0
2018-02-23T00:35:52.090Z,0
2018-02-23T00:36:52.188Z,0
2018-02-23T00:37:52.562Z,0
2018-02-23T00:38:52.311Z,0
2018-02-23T00:39:52.298Z,0
2018-02-23T00:40:52.023Z,0
2018-02-23T00:41:52.276Z,0
2018-02-23T00:42:52.000Z,0
2018-02-23T00:43:52.047Z,0
2018-02-23T00:44:52.499Z,0
2018-02-23T00:45:51.988Z,0
2018-02-23T00:46:52.215Z,0
2018-02-23T00:47:52.465Z,0
2018-02-23T00:48:52.170Z,0
2018-02-23T00:49:52.433Z,0
2018-02-23T00:50:52.426Z,0
2018-02-23T00:51:51.898Z,0
2018-02-23T00:52:51.887Z,0
2018-02-23T00:53:52.118Z,0
2018-02-23T00:54:52.128Z,0
2018-02-23T00:55:52.102Z,0
2018-02-23T00:56:51.833Z,0
2018-02-23T00:57:54.128Z,0
2018-02-23T00:58:52.095Z,0
2018-02-23T00:59:52.121Z,0
2018-02-23T01:00:52.370Z,0
2018-02-23T01:01:52.323Z,0
2018-02-23T01:02:52.286Z,0
2018-02-23T01:03:51.763Z,0
2018-02-23T01:04:51.744Z,0
2018-02-23T01:05:52.019Z,0
2018-02-23T01:06:52.245Z,0
2018-02-23T01:07:51.715Z,0
2018-02-23T01:08:51.712Z,0
2018-02-23T01:09:51.961Z,0
2018-02-23T01:10:52.200Z,0
2018-02-23T01:11:52.160Z,0
2018-02-23T01:12:52.151Z,0
2018-02-23T01:13:52.163Z,0
2018-02-23T01:14:51.880Z,0
2018-02-23T01:15:51.688Z,0
2018-02-23T01:16:51.598Z,0
2018-02-23T01:17:51.839Z,0
2018-02-23T01:18:51.568Z,0
2018-02-23T01:19:51.829Z,0
2018-02-23T01:20:51.871Z,0
2018-02-23T01:21:51.793Z,0
2018-02-23T01:22:51.529Z,0
2018-02-23T01:23:51.789Z,0
2018-02-23T01:24:51.512Z,0
2018-02-23T01:25:51.831Z,0
2018-02-23T01:26:50.979Z,0
2018-02-23T01:27:51.739Z,0
2018-02-23T01:28:51.779Z,0
2018-02-23T01:29:51.720Z,0
2018-02-23T01:30:51.977Z,0
2018-02-23T01:31:51.435Z,0
2018-02-23T01:32:51.681Z,0
2018-02-23T01:33:51.676Z,0
2018-02-23T01:34:51.895Z,0
2018-02-23T01:35:51.938Z,0
2018-02-23T01:36:51.878Z,0
2018-02-23T01:37:51.359Z,0
2018-02-23T01:38:51.846Z,0
2018-02-23T01:39:51.843Z,0
2018-02-23T01:40:51.829Z,0
2018-02-23T01:41:51.299Z,0
2018-02-23T01:42:51.308Z,0
2018-02-23T01:43:51.789Z,0
2018-02-23T01:44:51.527Z,0
2018-02-23T01:45:51.512Z,0
2018-02-23T01:46:51.501Z,0
2018-02-23T01:47:51.506Z,0
2018-02-23T01:48:51.740Z,0
2018-02-23T01:49:51.731Z,0
2018-02-23T01:50:51.196Z,0
2018-02-23T01:51:51.191Z,0
2018-02-23T01:52:51.433Z,0
2018-02-23T01:53:51.422Z,0
2018-02-23T01:54:51.482Z,0
2018-02-23T01:55:51.683Z,0
2018-02-23T01:56:51.378Z,0
2018-02-23T01:57:51.111Z,0
2018-02-23T01:58:52.211Z,0
2018-02-23T01:59:51.597Z,0
2018-02-23T02:00:51.126Z,0
2018-02-23T02:01:51.593Z,0
2018-02-23T02:02:51.311Z,0
2018-02-23T02:03:51.555Z,0
2018-02-23T02:04:51.280Z,0
2018-02-23T02:05:51.060Z,0
2018-02-23T02:06:51.272Z,0
2018-02-23T02:07:51.259Z,0
2018-02-23T02:08:51.504Z,0
2018-02-23T02:09:51.226Z,0
2018-02-23T02:10:51.249Z,0
2018-02-23T02:11:51.460Z,0
2018-02-23T02:12:50.938Z,0
2018-02-23T02:13:54.643Z,0
2018-02-23T02:14:51.422Z,0
2018-02-23T02:15:51.415Z,0
2018-02-23T02:16:51.130Z,0
2018-02-23T02:17:51.120Z,0
2018-02-23T02:18:51.377Z,0
2018-02-23T02:19:51.370Z,0
2018-02-23T02:20:50.849Z,0
2018-02-23T02:21:51.082Z,0
2018-02-23T02:22:51.374Z,0
2018-02-23T02:23:51.313Z,0
2018-02-23T02:24:51.381Z,0
2018-02-23T02:25:51.301Z,0
2018-02-23T02:26:51.271Z,0
2018-02-23T02:27:51.259Z,0
2018-02-23T02:28:51.011Z,0
2018-02-23T02:29:52.114Z,0
2018-02-23T02:30:51.062Z,0
2018-02-23T02:31:51.037Z,0
2018-02-23T02:32:50.701Z,0
2018-02-23T02:33:51.203Z,0
2018-02-23T02:34:50.927Z,0
2018-02-23T02:35:51.183Z,0
2018-02-23T02:36:50.924Z,0
2018-02-23T02:37:51.158Z,0
2018-02-23T02:38:50.883Z,0
2018-02-23T02:39:50.622Z,0
2018-02-23T02:40:51.127Z,0
2018-02-23T02:41:51.125Z,0
2018-02-23T02:42:51.088Z,0
2018-02-23T02:43:50.864Z,0
2018-02-23T02:44:50.603Z,0
2018-02-23T02:45:50.661Z,0
2018-02-23T02:46:50.271Z,0
2018-02-23T02:47:51.027Z,0
2018-02-23T02:48:51.002Z,0
2018-02-23T02:49:50.754Z,0
2018-02-23T02:50:50.990Z,0
2018-02-23T02:51:50.211Z,0
2018-02-23T02:52:50.731Z,0
2018-02-23T02:53:50.969Z,0
2018-02-23T02:54:50.942Z,0
2018-02-23T02:55:50.675Z,0
2018-02-23T02:56:50.933Z,0
2018-02-23T02:57:50.653Z,0
2018-02-23T02:58:50.896Z,0
2018-02-23T02:59:52.290Z,0
2018-02-23T03:00:50.883Z,0
2018-02-23T03:01:50.882Z,0
2018-02-23T03:02:50.596Z,0
2018-02-23T03:03:50.583Z,0
2018-02-23T03:04:50.566Z,0
2018-02-23T03:05:50.623Z,0
2018-02-23T03:06:51.177Z,0
2018-02-23T03:07:50.785Z,0
2018-02-23T03:08:50.785Z,0
2018-02-23T03:09:50.778Z,0
2018-02-23T03:10:50.553Z,0
2018-02-23T03:11:50.725Z,0
2018-02-23T03:12:50.476Z,0
2018-02-23T03:13:50.727Z,0
2018-02-23T03:14:50.500Z,0
2018-02-23T03:15:50.729Z,0
2018-02-23T03:16:50.683Z,0
2018-02-23T03:17:50.656Z,0
2018-02-23T03:18:50.153Z,0
2018-02-23T03:19:50.385Z,0
2018-02-23T03:20:50.770Z,0
2018-02-23T03:21:50.362Z,0
2018-02-23T03:22:50.102Z,0
2018-02-23T03:23:50.593Z,0
2018-02-23T03:24:50.340Z,0
2018-02-23T03:25:50.081Z,0
2018-02-23T03:26:50.133Z,0
2018-02-23T03:27:49.567Z,0
2018-02-23T03:28:50.263Z,0
2018-02-23T03:29:52.142Z,0
2018-02-23T03:30:50.328Z,0
2018-02-23T03:31:50.239Z,0
2018-02-23T03:32:50.236Z,0
2018-02-23T03:33:50.216Z,0
2018-02-23T03:34:49.940Z,0
2018-02-23T03:35:50.466Z,0
2018-02-23T03:36:50.173Z,0
2018-02-23T03:37:50.519Z,0
2018-02-23T03:38:50.140Z,0
2018-02-23T03:39:50.401Z,0
2018-02-23T03:40:50.376Z,0
2018-02-23T03:41:50.115Z,0
2018-02-23T03:42:50.106Z,0
2018-02-23T03:43:50.111Z,0
2018-02-23T03:44:50.322Z,0
2018-02-23T03:45:50.101Z,0
2018-02-23T03:46:50.303Z,0
2018-02-23T03:47:50.313Z,0
2018-02-23T03:48:50.280Z,0
2018-02-23T03:49:50.263Z,0
2018-02-23T03:50:49.803Z,0
2018-02-23T03:51:50.002Z,0
2018-02-23T03:52:50.234Z,0
2018-02-23T03:53:50.251Z,0
2018-02-23T03:54:49.958Z,0
2018-02-23T03:55:49.998Z,0
2018-02-23T03:56:50.329Z,0
2018-02-23T03:57:49.922Z,0
2018-02-23T03:58:50.169Z,0
2018-02-23T03:59:50.987Z,0
2018-02-23T04:00:50.179Z,0
2018-02-23T04:01:50.124Z,0
2018-02-23T04:02:49.599Z,0
2018-02-23T04:03:49.859Z,0
2018-02-23T04:04:49.837Z,0
2018-02-23T04:05:50.073Z,0
2018-02-23T04:06:49.810Z,0
2018-02-23T04:07:50.037Z,0
2018-02-23T04:08:49.792Z,0
2018-02-23T04:09:49.549Z,0
2018-02-23T04:10:50.112Z,0
2018-02-23T04:11:49.999Z,0
2018-02-23T04:12:49.472Z,0
2018-02-23T04:13:49.972Z,0
2018-02-23T04:14:49.520Z,0
2018-02-23T04:15:49.823Z,0
2018-02-23T04:16:49.944Z,0
2018-02-23T04:17:49.706Z,0
2018-02-23T04:18:49.916Z,0
2018-02-23T04:19:49.898Z,0
2018-02-23T04:20:49.956Z,0
2018-02-23T04:21:49.882Z,0
2018-02-23T04:22:49.861Z,0
2018-02-23T04:23:49.599Z,0
2018-02-23T04:24:49.311Z,0
2018-02-23T04:25:49.860Z,0
2018-02-23T04:26:49.324Z,0
2018-02-23T04:27:49.528Z,0
2018-02-23T04:28:49.532Z,0
2018-02-23T04:29:49.501Z,0
2018-02-23T04:30:51.661Z,0
2018-02-23T04:31:49.501Z,0
2018-02-23T04:32:49.471Z,0
2018-02-23T04:33:49.746Z,0
2018-02-23T04:34:49.456Z,0
2018-02-23T04:35:49.217Z,0
2018-02-23T04:36:49.661Z,0
2018-02-23T04:37:49.647Z,0
2018-02-23T04:38:49.395Z,0
2018-02-23T04:39:49.363Z,0
2018-02-23T04:40:49.372Z,0
2018-02-23T04:41:49.345Z,0
2018-02-23T04:42:49.593Z,0
2018-02-23T04:43:49.567Z,0
2018-02-23T04:44:49.574Z,0
2018-02-23T04:45:50.182Z,0
2018-02-23T04:46:49.278Z,0
2018-02-23T04:47:49.272Z,0
2018-02-23T04:48:49.270Z,0
2018-02-23T04:49:49.246Z,0
2018-02-23T04:50:49.227Z,0
2018-02-23T04:51:49.474Z,0
2018-02-23T04:52:48.969Z,0
2018-02-23T04:53:49.185Z,0
2018-02-23T04:54:49.189Z,0
2018-02-23T04:55:49.211Z,0
2018-02-23T04:56:49.162Z,0
2018-02-23T04:57:49.144Z,0
2018-02-23T04:58:49.145Z,0
2018-02-23T04:59:49.365Z,0
2018-02-23T05:00:50.400Z,0
2018-02-23T05:01:48.822Z,0
2018-02-23T05:02:49.068Z,0
2018-02-23T05:03:49.308Z,0
2018-02-23T05:04:49.050Z,0
2018-02-23T05:05:49.294Z,0
2018-02-23T05:06:49.026Z,0
2018-02-23T05:07:49.017Z,0
2018-02-23T05:08:48.744Z,0
2018-02-23T05:09:48.986Z,0
2018-02-23T05:10:48.800Z,0
2018-02-23T05:11:48.692Z,0
2018-02-23T05:12:48.680Z,0
2018-02-23T05:13:49.204Z,0
2018-02-23T05:14:49.178Z,0
2018-02-23T05:15:51.441Z,0
2018-02-23T05:16:48.886Z,0
2018-02-23T05:17:48.638Z,0
2018-02-23T05:18:48.888Z,0
2018-02-23T05:19:49.100Z,0
2018-02-23T05:20:49.135Z,0
2018-02-23T05:21:48.815Z,0
2018-02-23T05:22:48.804Z,0
2018-02-23T05:23:49.050Z,0
2018-02-23T05:24:48.794Z,0
2018-02-23T05:25:48.512Z,0
2018-02-23T05:26:49.015Z,0
2018-02-23T05:27:48.493Z,0
2018-02-23T05:28:48.542Z,0
2018-02-23T05:29:49.128Z,0
2018-02-23T05:30:49.083Z,0
2018-02-23T05:31:49.941Z,0
2018-02-23T05:32:48.681Z,0
2018-02-23T05:33:48.911Z,0
2018-02-23T05:34:48.907Z,0
2018-02-23T05:35:48.662Z,0
2018-02-23T05:36:48.634Z,0
2018-02-23T05:37:48.606Z,0
2018-02-23T05:38:48.843Z,0
2018-02-23T05:39:48.574Z,0
2018-02-23T05:40:48.409Z,0
2018-02-23T05:41:48.055Z,0
2018-02-23T05:42:48.610Z,0
2018-02-23T05:43:48.771Z,0
2018-02-23T05:44:48.268Z,0
2018-02-23T05:45:48.547Z,0
2018-02-23T05:46:48.750Z,0
2018-02-23T05:47:48.728Z,0
2018-02-23T05:48:48.211Z,0
2018-02-23T05:49:48.708Z,0
2018-02-23T05:50:48.766Z,0
2018-02-23T05:51:48.692Z,0
2018-02-23T05:52:47.910Z,0
2018-02-23T05:53:48.637Z,0
2018-02-23T05:54:48.384Z,0
2018-02-23T05:55:48.492Z,0
2018-02-23T05:56:47.871Z,0
2018-02-23T05:57:48.632Z,0
2018-02-23T05:58:48.624Z,0
2018-02-23T05:59:48.314Z,0
2018-02-23T06:00:48.605Z,0
2018-02-23T06:01:50.678Z,0
2018-02-23T06:02:48.526Z,0
2018-02-23T06:03:48.014Z,0
2018-02-23T06:04:48.242Z,0
2018-02-23T06:05:48.507Z,0
2018-02-23T06:06:48.474Z,0
2018-02-23T06:07:48.221Z,0
2018-02-23T06:08:48.436Z,0
2018-02-23T06:09:48.180Z,0
2018-02-23T06:10:48.464Z,0
2018-02-23T06:11:48.155Z,0
2018-02-23T06:12:48.151Z,0
2018-02-23T06:13:48.368Z,0
2018-02-23T06:14:48.355Z,0
2018-02-23T06:15:48.372Z,0
2018-02-23T06:16:47.840Z,0
2018-02-23T06:17:48.569Z,0
2018-02-23T06:18:48.056Z,0
2018-02-23T06:19:48.045Z,5
2018-02-23T06:20:48.070Z,5
2018-02-23T06:21:48.017Z,5
2018-02-23T06:22:48.257Z,5
2018-02-23T06:23:48.236Z,5
2018-02-23T06:24:47.966Z,5
2018-02-23T06:25:47.976Z,5
2018-02-23T06:26:48.269Z,5
2018-02-23T06:27:47.936Z,5
2018-02-23T06:28:47.669Z,5
2018-02-23T06:29:48.163Z,10
2018-02-23T06:30:48.195Z,10
2018-02-23T06:31:47.876Z,10
2018-02-23T06:32:48.304Z,10
2018-02-23T06:33:48.106Z,10
2018-02-23T06:34:47.590Z,10
2018-02-23T06:35:47.703Z,10
2018-02-23T06:36:47.807Z,10
2018-02-23T06:37:47.813Z,10
2018-02-23T06:38:47.558Z,15
2018-02-23T06:39:48.034Z,15
2018-02-23T06:40:47.846Z,15
2018-02-23T06:41:47.763Z,15
2018-02-23T06:42:47.753Z,15
2018-02-23T06:43:47.719Z,15
2018-02-23T06:44:47.568Z,20
2018-02-23T06:45:47.760Z,20
2018-02-23T06:46:47.692Z,20
2018-02-23T06:47:47.954Z,20
2018-02-23T06:48:47.652Z,20
2018-02-23T06:49:47.394Z,25
2018-02-23T06:50:47.142Z,25
2018-02-23T06:51:47.597Z,25
2018-02-23T06:52:47.438Z,25
2018-02-23T06:53:47.880Z,30
2018-02-23T06:54:47.052Z,30
2018-02-23T06:55:47.385Z,30
2018-02-23T06:56:47.647Z,30
2018-02-23T06:57:47.539Z,35
2018-02-23T06:58:47.516Z,35
2018-02-23T06:59:47.540Z,35
2018-02-23T07:00:47.245Z,35
2018-02-23T07:01:47.228Z,35
2018-02-23T07:02:47.790Z,35
2018-02-23T07:03:46.954Z,35
2018-02-23T07:04:47.313Z,35
2018-02-23T07:05:47.420Z,35
2018-02-23T07:06:47.393Z,35
2018-02-23T07:07:47.383Z,35
2018-02-23T07:08:47.110Z,40
2018-02-23T07:09:47.364Z,40
2018-02-23T07:10:47.347Z,40
2018-02-23T07:11:47.602Z,40
2018-02-23T07:12:47.602Z,40
2018-02-23T07:13:47.570Z,40
2018-02-23T07:14:47.289Z,40
2018-02-23T07:15:47.310Z,40
2018-02-23T07:16:47.260Z,45
2018-02-23T07:17:51.844Z,45
2018-02-23T07:18:47.063Z,45
2018-02-23T07:19:47.218Z,45
2018-02-23T07:20:47.312Z,50
2018-02-23T07:21:47.470Z,45
2018-02-23T07:22:47.192Z,45
2018-02-23T07:23:47.176Z,45
2018-02-23T07:24:46.900Z,50
2018-02-23T07:25:47.174Z,50
2018-02-23T07:26:47.123Z,50
2018-02-23T07:27:46.602Z,50
2018-02-23T07:28:47.349Z,55
2018-02-23T07:29:47.342Z,50
2018-02-23T07:30:46.864Z,50
2018-02-23T07:31:47.322Z,50
2018-02-23T07:32:47.047Z,50
2018-02-23T07:33:48.094Z,55
2018-02-23T07:34:47.265Z,55
2018-02-23T07:35:47.290Z,55
2018-02-23T07:36:47.243Z,55
2018-02-23T07:37:46.975Z,60
2018-02-23T07:38:46.976Z,60
2018-02-23T07:39:46.700Z,65
2018-02-23T07:40:47.026Z,65
2018-02-23T07:41:47.230Z,65
2018-02-23T07:42:47.171Z,65
2018-02-23T07:43:47.202Z,65
2018-02-23T07:44:46.886Z,65
2018-02-23T07:45:46.372Z,60
2018-02-23T07:46:46.859Z,60
2018-02-23T07:47:46.846Z,60
2018-02-23T07:48:46.834Z,65
2018-02-23T07:49:46.313Z,60
2018-02-23T07:50:46.852Z,65
2018-02-23T07:51:46.539Z,65
2018-02-23T07:52:46.269Z,65
2018-02-23T07:53:46.263Z,70
2018-02-23T07:54:47.032Z,70
2018-02-23T07:55:46.542Z,70
2018-02-23T07:56:46.729Z,70
2018-02-23T07:57:46.972Z,75
2018-02-23T07:58:46.957Z,70
2018-02-23T07:59:46.941Z,70
2018-02-23T08:00:46.763Z,70
2018-02-23T08:01:46.401Z,70
2018-02-23T08:02:46.903Z,70
2018-02-23T08:03:47.753Z,70
2018-02-23T08:04:46.364Z,70
2018-02-23T08:05:46.696Z,70
2018-02-23T08:06:46.343Z,70
2018-02-23T08:07:46.581Z,70
2018-02-23T08:08:46.820Z,70
2018-02-23T08:09:46.798Z,70
2018-02-23T08:10:46.579Z,70
2018-02-23T08:11:46.798Z,70
2018-02-23T08:12:46.759Z,70
2018-02-23T08:13:46.512Z,65
2018-02-23T08:14:46.889Z,70
2018-02-23T08:15:46.289Z,70
2018-02-23T08:16:46.211Z,70
2018-02-23T08:17:46.446Z,70
2018-02-23T08:18:46.189Z,65
2018-02-23T08:19:46.173Z,70
2018-02-23T08:20:46.495Z,70
2018-02-23T08:21:46.398Z,70
2018-02-23T08:22:46.142Z,75
2018-02-23T08:23:46.369Z,80
2018-02-23T08:24:45.846Z,80
2018-02-23T08:25:46.612Z,80
2018-02-23T08:26:46.089Z,85
2018-02-23T08:27:46.328Z,85
2018-02-23T08:28:46.056Z,90
2018-02-23T08:29:46.298Z,85
2018-02-23T08:30:46.098Z,90
2018-02-23T08:31:46.262Z,95
2018-02-23T08:32:45.783Z,100
2018-02-23T08:33:50.248Z,105
2018-02-23T08:34:46.499Z,110
2018-02-23T08:35:45.963Z,115
2018-02-23T08:36:46.197Z,120
2018-02-23T08:37:46.223Z,120
2018-02-23T08:38:46.443Z,125
2018-02-23T08:40:18.538Z,125
2018-02-23T08:40:46.467Z,125
2018-02-23T08:41:45.898Z,130
2018-02-23T08:42:46.393Z,130
2018-02-23T08:43:45.863Z,130
2018-02-23T08:44:45.858Z,130
2018-02-23T08:45:45.670Z,130
2018-02-23T08:46:45.828Z,135
2018-02-23T08:47:46.068Z,135
2018-02-23T08:48:46.040Z,135
2018-02-23T08:49:46.322Z,135
2018-02-23T08:50:46.297Z,135
2018-02-23T08:51:46.271Z,135
2018-02-23T08:52:46.276Z,135
2018-02-23T08:53:46.242Z,140
2018-02-23T08:54:45.975Z,140
2018-02-23T08:55:46.378Z,140
2018-02-23T08:56:45.693Z,140
2018-02-23T08:57:45.681Z,135
2018-02-23T08:58:45.929Z,135
2018-02-23T08:59:45.659Z,135
2018-02-23T09:00:45.666Z,135
2018-02-23T09:01:45.894Z,135
2018-02-23T09:02:45.395Z,135
2018-02-23T09:03:46.116Z,135
2018-02-23T09:04:47.516Z,135
2018-02-23T09:05:45.878Z,140
2018-02-23T09:06:46.089Z,140
2018-02-23T09:07:45.820Z,140
2018-02-23T09:08:45.560Z,140
2018-02-23T09:09:45.304Z,140
2018-02-23T09:10:45.822Z,140
2018-02-23T09:11:45.762Z,140
2018-02-23T09:12:45.584Z,145
2018-02-23T09:13:45.502Z,140
2018-02-23T09:14:45.726Z,140
2018-02-23T09:15:45.524Z,140
2018-02-23T09:16:45.706Z,135
2018-02-23T09:17:45.453Z,140
2018-02-23T09:18:45.982Z,135
2018-02-23T09:19:45.671Z,140
2018-02-23T09:20:45.698Z,140
2018-02-23T09:21:45.137Z,140
2018-02-23T09:22:45.397Z,140
2018-02-23T09:23:45.385Z,145
2018-02-23T09:24:45.955Z,145
2018-02-23T09:25:45.673Z,145
2018-02-23T09:26:45.608Z,145
2018-02-23T09:27:45.336Z,145
2018-02-23T09:28:44.797Z,145
2018-02-23T09:29:45.796Z,145
2018-02-23T09:30:45.592Z,150
2018-02-23T09:31:45.534Z,150
2018-02-23T09:32:45.522Z,155
2018-02-23T09:33:45.272Z,160
2018-02-23T09:34:47.127Z,160
2018-02-23T09:35:45.274Z,165
2018-02-23T09:36:45.479Z,165
2018-02-23T09:37:45.459Z,165
2018-02-23T09:38:45.185Z,160
2018-02-23T09:39:45.181Z,160
2018-02-23T09:40:45.501Z,165
2018-02-23T09:41:45.431Z,160
2018-02-23T09:42:45.650Z,160
2018-02-23T09:43:45.238Z,160
2018-02-23T09:44:45.113Z,155
2018-02-23T09:45:45.422Z,155
2018-02-23T09:46:44.823Z,155
2018-02-23T09:47:45.335Z,155
2018-02-23T09:48:45.342Z,155
2018-02-23T09:49:45.041Z,155
2018-02-23T09:50:47.191Z,155
2018-02-23T09:51:45.030Z,150
2018-02-23T09:52:45.543Z,150
2018-02-23T09:53:45.001Z,150
2018-02-23T09:54:45.511Z,150
2018-02-23T09:55:45.268Z,155
2018-02-23T09:56:45.631Z,155
2018-02-23T09:57:45.219Z,155
2018-02-23T09:58:45.227Z,155
2018-02-23T09:59:44.929Z,155
2018-02-23T10:00:45.498Z,160
2018-02-23T10:01:45.154Z,160
2018-02-23T10:02:45.419Z,155
2018-02-23T10:03:45.144Z,160
2018-02-23T10:04:45.420Z,160
2018-02-23T10:05:46.521Z,160
2018-02-23T10:06:45.110Z,160
2018-02-23T10:07:45.101Z,160
2018-02-23T10:08:45.090Z,160
2018-02-23T10:09:45.084Z,160
2018-02-23T10:10:44.905Z,165
2018-02-23T10:11:44.551Z,160
2018-02-23T10:12:45.037Z,165
2018-02-23T10:13:44.525Z,165
2018-02-23T10:14:45.008Z,165
2018-02-23T10:15:45.592Z,165
2018-02-23T10:16:44.486Z,165
2018-02-23T10:17:45.229Z,170
2018-02-23T10:18:45.272Z,170
2018-02-23T10:19:44.959Z,170
2018-02-23T10:20:45.044Z,170
2018-02-23T10:21:44.939Z,180
2018-02-23T10:22:45.172Z,175
2018-02-23T10:23:44.431Z,180
2018-02-23T10:24:45.165Z,180
2018-02-23T10:25:46.564Z,180
2018-02-23T10:55:47.261Z,155
2018-02-23T10:56:47.693Z,155
2018-02-23T10:57:47.992Z,160
2018-02-23T10:58:47.667Z,160
2018-02-23T10:59:47.123Z,160
2018-02-23T11:00:47.379Z,160
2018-02-23T11:01:47.614Z,160
2018-02-23T11:02:47.597Z,160
2018-02-23T11:03:47.343Z,160
2018-02-23T11:04:47.842Z,170
2018-02-23T11:05:47.684Z,165
2018-02-23T11:06:47.298Z,165
2018-02-23T11:07:47.816Z,165
2018-02-23T11:08:47.518Z,160
2018-02-23T11:09:47.251Z,165
2018-02-23T11:10:48.553Z,165
2018-02-23T11:11:47.227Z,165
2018-02-23T11:12:47.469Z,170
2018-02-23T11:13:46.948Z,165
2018-02-23T11:14:47.736Z,170
2018-02-23T11:15:47.774Z,170
2018-02-23T11:16:47.430Z,170
2018-02-23T11:17:47.428Z,175
2018-02-23T11:18:47.761Z,175
2018-02-23T11:19:47.650Z,175
2018-02-23T11:20:47.665Z,175
2018-02-23T11:21:47.367Z,175
2018-02-23T11:22:47.620Z,175
2018-02-23T11:23:47.619Z,175
2018-02-23T11:24:47.349Z,175
2018-02-23T11:25:47.717Z,175
2018-02-23T11:26:47.309Z,175
2018-02-23T11:27:47.603Z,175
2018-02-23T11:28:47.556Z,175
2018-02-23T11:29:47.056Z,180
2018-02-23T11:30:47.326Z,175
2018-02-23T11:31:47.258Z,175
2018-02-23T11:32:47.245Z,175
2018-02-23T11:33:46.735Z,175
2018-02-23T11:34:47.262Z,175
2018-02-23T11:35:46.992Z,180
2018-02-23T11:36:47.479Z,175
2018-02-23T11:37:47.193Z,170
2018-02-23T11:38:47.181Z,165
2018-02-23T11:39:47.419Z,160
2018-02-23T11:40:50.697Z,160
2018-02-23T11:41:47.156Z,160
2018-02-23T11:42:46.900Z,160
2018-02-23T11:43:47.382Z,160
2018-02-23T11:44:47.368Z,160
2018-02-23T11:45:47.206Z,170
2018-02-23T11:46:46.843Z,175
2018-02-23T11:47:47.079Z,175
2018-02-23T11:48:46.847Z,170
2018-02-23T11:49:46.842Z,170
2018-02-23T11:50:46.829Z,170
2018-02-23T11:51:47.037Z,170
2018-02-23T11:52:47.046Z,170
2018-02-23T11:53:47.029Z,170
2018-02-23T11:54:47.005Z,170
2018-02-23T11:55:48.144Z,165
2018-02-23T11:56:47.242Z,165
2018-02-23T11:57:47.234Z,170
2018-02-23T11:58:46.971Z,175
2018-02-23T11:59:47.219Z,170
2018-02-23T12:00:47.040Z,175
2018-02-23T12:01:47.205Z,180
2018-02-23T12:02:47.192Z,185
2018-02-23T12:03:46.919Z,185
2018-02-23T12:04:46.911Z,185
2018-02-23T12:05:46.953Z,190
2018-02-23T12:06:46.639Z,185
2018-02-23T12:07:46.876Z,190
2018-02-23T12:08:46.622Z,185
2018-02-23T12:09:47.104Z,185
2018-02-23T12:10:48.020Z,185
2018-02-23T12:11:46.330Z,190
2018-02-23T12:12:46.844Z,180
2018-02-23T12:13:46.559Z,185
2018-02-23T12:14:46.816Z,190
2018-02-23T12:15:46.808Z,185
2018-02-23T12:16:46.790Z,185
2018-02-23T12:17:46.535Z,190
2018-02-23T12:18:46.269Z,190
2018-02-23T12:19:47.007Z,195
2018-02-23T12:20:47.048Z,190
2018-02-23T12:21:46.239Z,185
2018-02-23T12:22:46.486Z,190
2018-02-23T12:23:46.472Z,190
2018-02-23T12:24:46.961Z,190
2018-02-23T12:25:46.319Z,195
2018-02-23T12:26:48.539Z,200
2018-02-23T12:27:46.460Z,200
2018-02-23T12:28:46.672Z,200
2018-02-23T12:29:46.400Z,205
2018-02-23T12:30:46.983Z,210
2018-02-23T12:31:46.887Z,215
2018-02-23T12:32:46.883Z,220
2018-02-23T12:33:46.374Z,220
2018-02-23T12:34:46.868Z,215
2018-02-23T12:35:46.900Z,205
2018-02-23T12:36:46.342Z,205
2018-02-23T12:37:46.852Z,205
2018-02-23T12:38:46.313Z,205
2018-02-23T12:39:46.557Z,205
2018-02-23T12:40:46.597Z,205
2018-02-23T12:41:48.392Z,205
2018-02-23T12:42:46.535Z,205
2018-02-23T12:43:46.281Z,205
2018-02-23T12:44:46.265Z,205
2018-02-23T12:45:46.617Z,205
2018-02-23T12:46:46.750Z,210
2018-02-23T12:47:46.482Z,210
2018-02-23T12:48:46.736Z,220
2018-02-23T12:49:46.731Z,220
2018-02-23T12:50:46.549Z,210
2018-02-23T12:51:46.702Z,210
2018-02-23T12:52:46.453Z,210
2018-02-23T12:53:46.440Z,200
2018-02-23T12:54:46.672Z,200
2018-02-23T12:55:46.177Z,205
2018-02-23T12:56:48.050Z,200
2018-02-23T12:57:46.396Z,195
2018-02-23T12:58:46.141Z,190
2018-02-23T12:59:46.710Z,185
2018-02-23T13:00:46.668Z,190
2018-02-23T13:01:46.119Z,185
2018-02-23T13:02:46.090Z,185
2018-02-23T13:03:46.611Z,185
2018-02-23T13:04:46.574Z,190
2018-02-23T13:05:46.121Z,190
2018-02-23T13:06:46.053Z,190
2018-02-23T13:07:46.553Z,185
2018-02-23T13:08:46.290Z,185
2018-02-23T13:09:46.034Z,185
2018-02-23T13:10:46.612Z,190
2018-02-23T13:11:47.008Z,190
2018-02-23T13:12:46.253Z,185
2018-02-23T13:13:45.744Z,185
2018-02-23T13:14:45.753Z,180
2018-02-23T13:15:45.760Z,175
2018-02-23T13:16:45.964Z,180
2018-02-23T13:17:46.213Z,175
2018-02-23T13:18:46.470Z,175
2018-02-23T13:19:45.931Z,170
2018-02-23T13:20:46.280Z,165
2018-02-23T13:21:46.171Z,165
2018-02-23T13:22:46.430Z,160
2018-02-23T13:23:46.293Z,155
2018-02-23T13:24:46.146Z,165
2018-02-23T13:25:45.911Z,165
2018-02-23T13:26:45.881Z,170
2018-02-23T13:27:47.690Z,170
2018-02-23T13:28:45.612Z,180
2018-02-23T13:29:46.353Z,170
2018-02-23T13:30:46.458Z,170
2018-02-23T13:31:46.344Z,165
2018-02-23T13:32:45.582Z,165
2018-02-23T13:33:46.331Z,165
2018-02-23T13:34:46.056Z,160
2018-02-23T13:35:45.831Z,155
2018-02-23T13:36:46.042Z,150
2018-02-23T13:37:45.538Z,150
2018-02-23T13:38:46.269Z,140
2018-02-23T13:39:46.020Z,135
2018-02-23T13:40:45.770Z,125
2018-02-23T13:41:46.004Z,120
2018-02-23T13:42:47.915Z,120
2018-02-23T13:43:46.226Z,125
2018-02-23T13:44:46.217Z,130
2018-02-23T13:45:46.050Z,135
2018-02-23T13:46:45.987Z,135
2018-02-23T13:47:45.685Z,135
2018-02-23T13:48:46.186Z,140
2018-02-23T13:49:45.928Z,140
2018-02-23T13:50:46.438Z,135
2018-02-23T13:51:46.153Z,135
2018-02-23T13:52:45.891Z,135
2018-02-23T13:53:45.898Z,140
2018-02-23T13:54:46.134Z,140
2018-02-23T13:55:46.225Z,135
2018-02-23T13:56:45.859Z,130
2018-02-23T13:57:45.840Z,125
2018-02-23T13:58:46.122Z,125
2018-02-23T13:59:45.604Z,120
2018-02-23T14:00:45.863Z,120
2018-02-23T14:01:45.819Z,120
2018-02-23T14:02:45.575Z,120
2018-02-23T14:03:45.554Z,115
2018-02-23T14:04:45.278Z,110
2018-02-23T14:05:45.797Z,105
2018-02-23T14:06:45.772Z,105
2018-02-23T14:07:45.777Z,100
2018-02-23T14:08:45.232Z,100
2018-02-23T14:09:45.739Z,100
2018-02-23T14:10:46.075Z,95
2018-02-23T14:11:45.496Z,95
2018-02-23T14:12:47.874Z,95
2018-02-23T14:13:45.185Z,95
2018-02-23T14:14:45.176Z,95
2018-02-23T14:15:45.956Z,95
2018-02-23T14:16:45.439Z,95
2018-02-23T14:17:45.911Z,95
2018-02-23T14:18:45.675Z,95
2018-02-23T14:19:45.950Z,95
2018-02-23T14:20:45.699Z,95
2018-02-23T14:21:45.647Z,95
2018-02-23T14:22:45.626Z,95
2018-02-23T14:23:45.616Z,95
2018-02-23T14:24:45.872Z,95
2018-02-23T14:25:45.663Z,95
2018-02-23T14:26:45.593Z,95
2018-02-23T14:27:45.626Z,95
2018-02-23T14:28:45.309Z,95
2018-02-23T14:29:45.567Z,95
2018-02-23T14:30:45.484Z,95
2018-02-23T14:31:45.798Z,95
2018-02-23T14:32:45.543Z,95
2018-02-23T14:33:45.254Z,100
2018-02-23T14:34:45.529Z,95
2018-02-23T14:35:45.552Z,95
2018-02-23T14:36:45.740Z,95
2018-02-23T14:37:45.484Z,90
2018-02-23T14:38:45.211Z,90
2018-02-23T14:39:45.465Z,95
2018-02-23T14:40:45.701Z,95
2018-02-23T14:41:45.691Z,95
2018-02-23T14:42:47.746Z,95
2018-02-23T14:43:45.164Z,95
2018-02-23T14:44:45.424Z,90
2018-02-23T14:45:45.685Z,95
2018-02-23T14:46:45.398Z,90
2018-02-23T14:47:45.659Z,90